createdAt,value
2019-06-26T00:00:36.365Z,13.08
2019-06-26T00:01:43.484Z,13.22
2019-06-26T00:02:52.338Z,14.33
2019-06-26T00:04:00.411Z,14.00
2019-06-26T00:05:09.926Z,13.55
2019-06-26T00:06:17.914Z,12.53
2019-06-26T00:07:28.362Z,12.53
2019-06-26T00:08:36.789Z,13.28
2019-06-26T00:09:45.784Z,12.37
2019-06-26T00:10:53.938Z,18.95
2019-06-26T00:12:03.057Z,15.32
2019-06-26T00:13:34.720Z,16.50
2019-06-26T00:14:43.874Z,15.38
2019-06-26T00:15:52.050Z,13.03
2019-06-26T00:17:01.112Z,12.55
2019-06-26T00:18:09.298Z,11.57
2019-06-26T00:19:18.313Z,14.98
2019-06-26T00:20:26.837Z,24.63
2019-06-26T00:21:35.810Z,22.70
2019-06-26T00:22:43.952Z,21.60
2019-06-26T00:23:52.824Z,20.75
2019-06-26T00:25:01.171Z,20.17
2019-06-26T00:26:10.191Z,16.67
2019-06-26T00:27:18.342Z,14.10
2019-06-26T00:28:27.216Z,15.93
2019-06-26T00:29:35.272Z,14.13
2019-06-26T00:30:44.992Z,14.65
2019-06-26T00:31:53.309Z,13.13
2019-06-26T00:33:02.102Z,13.80
2019-06-26T00:34:10.031Z,12.33
2019-06-26T00:35:19.156Z,13.60
2019-06-26T00:36:27.762Z,11.85
2019-06-26T00:37:36.631Z,12.00
2019-06-26T00:38:49.161Z,13.90
2019-06-26T00:39:58.124Z,13.03
2019-06-26T00:41:06.772Z,11.48
2019-06-26T00:42:15.867Z,15.10
2019-06-26T00:43:24.033Z,14.47
2019-06-26T00:44:32.949Z,16.25
2019-06-26T00:45:41.106Z,14.93
2019-06-26T00:46:50.052Z,15.40
2019-06-26T00:47:58.316Z,12.35
2019-06-26T00:49:07.243Z,17.67
2019-06-26T00:50:17.487Z,14.73
2019-06-26T00:51:26.820Z,13.30
2019-06-26T00:52:35.121Z,14.03
2019-06-26T00:53:44.038Z,14.28
2019-06-26T00:54:52.269Z,15.80
2019-06-26T00:56:01.080Z,12.73
2019-06-26T00:57:09.125Z,13.28
2019-06-26T00:58:18.005Z,13.08
2019-06-26T00:59:26.170Z,12.93
2019-06-26T01:00:47.813Z,16.17
2019-06-26T01:01:56.020Z,15.88
2019-06-26T01:03:04.781Z,14.75
2019-06-26T01:04:14.464Z,11.80
2019-06-26T01:05:23.409Z,16.07
2019-06-26T01:06:43.661Z,15.70
2019-06-26T01:07:52.429Z,18.80
2019-06-26T01:09:00.566Z,14.00
2019-06-26T01:10:12.068Z,16.05
2019-06-26T01:11:21.690Z,11.83
2019-06-26T01:12:30.583Z,19.67
2019-06-26T01:13:38.556Z,15.25
2019-06-26T01:14:47.416Z,12.63
2019-06-26T01:15:55.595Z,16.95
2019-06-26T01:17:04.997Z,13.28
2019-06-26T01:18:13.424Z,12.55
2019-06-26T01:19:22.588Z,12.45
2019-06-26T01:20:30.804Z,13.38
2019-06-26T01:21:39.469Z,13.93
2019-06-26T01:22:47.595Z,15.00
2019-06-26T01:23:56.304Z,12.93
2019-06-26T01:25:04.957Z,15.55
2019-06-26T01:26:13.322Z,12.28
2019-06-26T01:27:21.315Z,14.35
2019-06-26T01:28:30.782Z,18.15
2019-06-26T01:29:38.877Z,14.15
2019-06-26T01:30:47.722Z,15.83
2019-06-26T01:31:55.805Z,14.35
2019-06-26T01:33:04.725Z,17.50
2019-06-26T01:34:12.499Z,13.90
2019-06-26T01:35:21.397Z,12.53
2019-06-26T01:36:29.509Z,11.73
2019-06-26T01:37:38.501Z,15.25
2019-06-26T01:38:46.499Z,11.45
2019-06-26T01:39:55.384Z,12.88
2019-06-26T01:41:03.775Z,14.68
2019-06-26T01:42:12.587Z,14.28
2019-06-26T01:43:20.741Z,12.10
2019-06-26T01:44:29.860Z,16.73
2019-06-26T01:45:37.969Z,14.35
2019-06-26T01:46:46.993Z,15.38
2019-06-26T01:47:55.072Z,12.47
2019-06-26T01:49:04.073Z,13.98
2019-06-26T01:50:12.940Z,15.50
2019-06-26T01:51:22.415Z,17.07
2019-06-26T01:52:30.614Z,12.95
2019-06-26T01:53:39.641Z,16.40
2019-06-26T01:54:47.679Z,14.60
2019-06-26T01:55:56.847Z,14.30
2019-06-26T01:57:05.071Z,14.50
2019-06-26T01:58:13.767Z,12.82
2019-06-26T01:59:21.626Z,13.10
2019-06-26T02:00:30.010Z,15.93
2019-06-26T02:01:38.138Z,12.37
2019-06-26T02:02:47.360Z,14.53
2019-06-26T02:03:55.678Z,13.22
2019-06-26T02:05:04.962Z,14.98
2019-06-26T02:06:13.301Z,13.60
2019-06-26T02:07:22.272Z,12.95
2019-06-26T02:08:30.493Z,13.83
2019-06-26T02:09:39.239Z,12.47
2019-06-26T02:10:47.167Z,12.98
2019-06-26T02:11:56.025Z,13.70
2019-06-26T02:13:04.651Z,13.90
2019-06-26T02:14:13.361Z,13.25
2019-06-26T02:15:21.830Z,13.90
2019-06-26T02:16:30.658Z,12.13
2019-06-26T02:17:38.678Z,16.42
2019-06-26T02:19:03.588Z,18.52
2019-06-26T02:20:12.228Z,13.75
2019-06-26T02:21:21.252Z,15.05
2019-06-26T02:22:29.387Z,15.88
2019-06-26T02:23:38.347Z,15.65
2019-06-26T02:24:46.461Z,14.43
2019-06-26T02:25:55.261Z,14.10
2019-06-26T02:27:03.583Z,15.43
2019-06-26T02:28:12.137Z,13.18
2019-06-26T02:29:20.369Z,13.58
2019-06-26T02:30:29.489Z,15.65
2019-06-26T02:31:37.586Z,18.05
2019-06-26T02:32:46.277Z,15.00
2019-06-26T02:33:54.451Z,14.58
2019-06-26T02:35:07.789Z,13.53
2019-06-26T02:36:13.178Z,16.02
2019-06-26T02:37:22.026Z,16.50
2019-06-26T02:38:30.106Z,13.32
2019-06-26T02:39:38.879Z,14.68
2019-06-26T02:40:47.186Z,13.90
2019-06-26T02:41:56.188Z,11.90
2019-06-26T02:43:07.064Z,14.25
2019-06-26T02:44:15.596Z,15.20
2019-06-26T02:45:24.197Z,18.37
2019-06-26T02:46:33.075Z,14.50
2019-06-26T02:47:41.152Z,23.07
2019-06-26T02:48:50.016Z,22.07
2019-06-26T02:49:58.119Z,13.72
2019-06-26T02:51:07.143Z,17.07
2019-06-26T02:52:15.213Z,16.30
2019-06-26T02:53:24.134Z,14.65
2019-06-26T02:54:32.375Z,16.97
2019-06-26T02:55:41.218Z,15.20
2019-06-26T02:56:49.474Z,14.83
2019-06-26T02:57:58.121Z,15.68
2019-06-26T02:59:06.339Z,15.15
2019-06-26T03:00:16.113Z,12.75
2019-06-26T03:01:24.507Z,19.48
2019-06-26T03:02:33.313Z,14.65
2019-06-26T03:03:41.779Z,17.25
2019-06-26T03:04:51.257Z,16.10
2019-06-26T03:05:59.242Z,16.45
2019-06-26T03:07:08.149Z,16.85
2019-06-26T03:08:16.110Z,20.68
2019-06-26T03:09:24.832Z,17.62
2019-06-26T03:10:33.480Z,15.88
2019-06-26T03:11:42.252Z,14.40
2019-06-26T03:12:50.303Z,15.53
2019-06-26T03:13:59.017Z,17.37
2019-06-26T03:15:09.986Z,15.15
2019-06-26T03:16:18.772Z,18.07
2019-06-26T03:17:27.440Z,16.00
2019-06-26T03:18:36.297Z,17.02
2019-06-26T03:19:44.587Z,15.35
2019-06-26T03:20:57.974Z,15.72
2019-06-26T03:22:06.127Z,15.95
2019-06-26T03:23:15.459Z,17.60
2019-06-26T03:24:23.501Z,16.10
2019-06-26T03:25:32.276Z,16.02
2019-06-26T03:26:40.302Z,15.15
2019-06-26T03:27:49.242Z,15.03
2019-06-26T03:28:57.032Z,18.95
2019-06-26T03:30:08.438Z,15.53
2019-06-26T03:31:16.811Z,14.83
2019-06-26T03:32:25.643Z,17.65
2019-06-26T03:33:34.155Z,17.85
2019-06-26T03:34:43.026Z,21.07
2019-06-26T03:35:50.916Z,13.98
2019-06-26T03:36:59.285Z,19.00
2019-06-26T03:38:07.557Z,17.60
2019-06-26T03:39:16.317Z,19.17
2019-06-26T03:40:24.518Z,19.55
2019-06-26T03:41:33.604Z,18.23
2019-06-26T03:42:41.751Z,15.72
2019-06-26T03:43:50.506Z,20.23
2019-06-26T03:44:58.626Z,16.30
2019-06-26T03:46:07.547Z,13.22
2019-06-26T03:47:15.704Z,22.60
2019-06-26T03:48:24.659Z,20.02
2019-06-26T03:49:32.665Z,15.60
2019-06-26T03:50:41.262Z,12.90
2019-06-26T03:51:49.387Z,14.78
2019-06-26T03:52:58.321Z,16.50
2019-06-26T03:54:06.452Z,16.07
2019-06-26T03:55:15.543Z,17.90
2019-06-26T03:56:23.476Z,17.52
2019-06-26T03:57:35.285Z,16.55
2019-06-26T03:58:42.213Z,16.77
2019-06-26T03:59:50.961Z,15.45
2019-06-26T04:00:58.996Z,16.07
2019-06-26T04:02:07.954Z,14.63
2019-06-26T04:03:16.340Z,14.25
2019-06-26T04:04:27.897Z,18.75
2019-06-26T04:05:36.316Z,16.48
2019-06-26T04:06:45.861Z,15.90
2019-06-26T04:07:54.177Z,18.12
2019-06-26T04:09:03.201Z,15.60
2019-06-26T04:10:11.711Z,16.25
2019-06-26T04:11:20.554Z,22.48
2019-06-26T04:12:28.545Z,18.05
2019-06-26T04:13:37.470Z,17.12
2019-06-26T04:14:45.904Z,17.15
2019-06-26T04:15:54.711Z,15.68
2019-06-26T04:17:02.911Z,14.13
2019-06-26T04:18:11.842Z,15.65
2019-06-26T04:19:19.970Z,16.37
2019-06-26T04:20:28.943Z,16.40
2019-06-26T04:21:37.273Z,16.97
2019-06-26T04:22:47.667Z,13.03
2019-06-26T04:23:55.927Z,16.70
2019-06-26T04:25:06.589Z,20.05
2019-06-26T04:26:15.077Z,15.60
2019-06-26T04:27:23.853Z,17.87
2019-06-26T04:28:32.032Z,15.25
2019-06-26T04:29:40.922Z,18.85
2019-06-26T04:30:49.159Z,14.07
2019-06-26T04:31:58.110Z,17.92
2019-06-26T04:33:06.331Z,17.62
2019-06-26T04:34:15.474Z,15.93
2019-06-26T04:35:23.337Z,16.45
2019-06-26T04:36:32.320Z,17.42
2019-06-26T04:37:40.395Z,20.05
2019-06-26T04:38:48.627Z,23.62
2019-06-26T04:39:56.868Z,19.50
2019-06-26T04:41:06.117Z,24.47
2019-06-26T04:42:14.382Z,16.20
2019-06-26T04:43:23.325Z,17.95
2019-06-26T04:44:31.417Z,22.85
2019-06-26T04:45:40.498Z,17.45
2019-06-26T04:46:48.407Z,16.07
2019-06-26T04:47:57.534Z,24.60
2019-06-26T04:49:05.863Z,18.70
2019-06-26T04:50:17.025Z,21.45
2019-06-26T04:51:25.814Z,18.75
2019-06-26T04:52:34.822Z,20.25
2019-06-26T04:53:43.153Z,19.98
2019-06-26T04:54:52.466Z,22.25
2019-06-26T04:56:00.456Z,21.37
2019-06-26T04:57:09.499Z,21.75
2019-06-26T04:58:17.565Z,18.15
2019-06-26T04:59:26.299Z,18.12
2019-06-26T05:00:34.463Z,23.45
2019-06-26T05:01:43.254Z,20.00
2019-06-26T05:02:51.236Z,20.17
2019-06-26T05:04:01.446Z,23.32
2019-06-26T05:05:10.311Z,18.52
2019-06-26T05:06:19.142Z,21.40
2019-06-26T05:07:27.078Z,19.50
2019-06-26T05:08:36.400Z,19.02
2019-06-26T05:09:44.455Z,19.62
2019-06-26T05:10:53.603Z,25.35
2019-06-26T05:12:01.820Z,19.00
2019-06-26T05:13:10.719Z,25.40
2019-06-26T05:14:19.114Z,21.80
2019-06-26T05:15:28.075Z,16.32
2019-06-26T05:16:36.464Z,17.17
2019-06-26T05:17:45.455Z,17.60
2019-06-26T05:18:53.783Z,21.90
2019-06-26T05:20:02.809Z,19.42
2019-06-26T05:21:10.990Z,18.77
2019-06-26T05:22:20.177Z,22.35
2019-06-26T05:23:28.157Z,19.60
2019-06-26T05:24:36.887Z,18.92
2019-06-26T05:25:44.951Z,20.95
2019-06-26T05:26:54.221Z,17.65
2019-06-26T05:28:02.472Z,19.60
2019-06-26T05:29:11.321Z,20.85
2019-06-26T05:30:21.186Z,18.20
2019-06-26T05:31:30.122Z,24.82
2019-06-26T05:32:38.607Z,19.00
2019-06-26T05:33:47.444Z,23.98
2019-06-26T05:34:55.619Z,20.02
2019-06-26T05:36:04.659Z,22.30
2019-06-26T05:37:12.952Z,20.17
2019-06-26T05:38:22.059Z,16.50
2019-06-26T05:39:30.238Z,17.87
2019-06-26T05:40:39.100Z,19.52
2019-06-26T05:41:47.580Z,17.20
2019-06-26T05:42:56.200Z,16.67
2019-06-26T05:44:05.724Z,16.52
2019-06-26T05:46:35.839Z,21.97
2019-06-26T05:47:44.935Z,15.90
2019-06-26T05:48:53.008Z,15.90
2019-06-26T05:50:02.116Z,20.27
2019-06-26T05:51:10.350Z,20.88
2019-06-26T05:52:19.721Z,18.77
2019-06-26T05:53:27.891Z,16.62
2019-06-26T05:54:37.326Z,19.45
2019-06-26T05:55:45.755Z,16.60
2019-06-26T05:56:55.051Z,17.37
2019-06-26T05:58:03.458Z,18.92
2019-06-26T05:59:12.447Z,18.07
2019-06-26T06:00:21.328Z,13.50
2019-06-26T06:01:30.659Z,15.32
2019-06-26T06:02:39.701Z,17.87
2019-06-26T06:03:49.180Z,14.28
2019-06-26T06:04:57.312Z,18.35
2019-06-26T06:06:06.676Z,15.68
2019-06-26T06:07:15.098Z,14.38
2019-06-26T06:08:23.962Z,20.15
2019-06-26T06:09:32.790Z,15.35
2019-06-26T06:10:41.748Z,15.85
2019-06-26T06:11:50.043Z,14.33
2019-06-26T06:12:59.198Z,15.55
2019-06-26T06:14:07.792Z,20.60
2019-06-26T06:15:18.093Z,13.25
2019-06-26T06:16:26.659Z,13.93
2019-06-26T06:17:35.649Z,18.12
2019-06-26T06:18:43.852Z,14.50
2019-06-26T06:19:53.079Z,11.03
2019-06-26T06:21:01.104Z,14.35
2019-06-26T06:22:10.362Z,19.25
2019-06-26T06:23:18.696Z,14.73
2019-06-26T06:24:27.809Z,15.23
2019-06-26T06:25:36.181Z,17.05
2019-06-26T06:26:45.442Z,14.47
2019-06-26T06:27:54.579Z,17.25
2019-06-26T06:30:21.297Z,12.25
2019-06-26T06:31:30.534Z,13.10
2019-06-26T06:32:39.030Z,14.53
2019-06-26T06:33:48.289Z,14.45
2019-06-26T06:34:56.462Z,11.73
2019-06-26T06:36:09.443Z,9.65
2019-06-26T06:37:15.829Z,13.75
2019-06-26T06:38:24.858Z,13.72
2019-06-26T06:39:32.744Z,15.28
2019-06-26T06:40:41.522Z,11.97
2019-06-26T06:41:49.656Z,18.73
2019-06-26T06:42:58.765Z,12.80
2019-06-26T06:44:07.041Z,10.50
2019-06-26T06:45:16.408Z,10.08
2019-06-26T06:47:03.323Z,11.00
2019-06-26T06:48:05.453Z,12.07
2019-06-26T06:49:45.280Z,12.43
2019-06-26T06:50:59.810Z,9.08
2019-06-26T06:52:20.950Z,10.98
2019-06-26T06:53:50.902Z,9.25
2019-06-26T06:55:22.182Z,9.88
2019-06-26T06:56:33.678Z,9.98
2019-06-26T06:57:42.176Z,11.03
2019-06-26T06:58:50.904Z,13.80
2019-06-26T06:59:58.982Z,14.60
2019-06-26T07:01:07.900Z,11.35
2019-06-26T07:02:16.018Z,12.50
2019-06-26T07:03:24.837Z,10.80
2019-06-26T07:04:32.891Z,11.30
2019-06-26T07:05:41.611Z,9.68
2019-06-26T07:06:49.537Z,11.50
2019-06-26T07:07:58.525Z,9.83
2019-06-26T07:09:08.085Z,10.13
2019-06-26T07:10:17.069Z,11.10
2019-06-26T07:11:25.088Z,15.05
2019-06-26T07:12:37.322Z,13.50
2019-06-26T07:13:45.398Z,10.93
2019-06-26T07:14:54.367Z,8.93
2019-06-26T07:16:02.354Z,11.22
2019-06-26T07:17:20.739Z,11.20
2019-06-26T07:18:20.721Z,14.53
2019-06-26T07:19:29.443Z,9.28
2019-06-26T07:20:37.494Z,13.22
2019-06-26T07:21:46.474Z,8.80
2019-06-26T07:22:54.407Z,10.10
2019-06-26T07:24:03.499Z,10.88
2019-06-26T07:25:11.926Z,11.53
2019-06-26T07:26:20.906Z,9.30
2019-06-26T07:27:28.787Z,10.55
2019-06-26T07:28:37.613Z,11.50
2019-06-26T07:29:45.764Z,13.08
2019-06-26T07:30:54.587Z,8.95
2019-06-26T07:32:02.389Z,10.60
2019-06-26T07:33:11.066Z,16.37
2019-06-26T07:34:19.069Z,10.60
2019-06-26T07:35:27.795Z,10.20
2019-06-26T07:36:36.016Z,11.33
2019-06-26T07:37:44.827Z,13.35
2019-06-26T07:38:53.262Z,11.65
2019-06-26T07:40:02.571Z,10.68
2019-06-26T07:41:11.039Z,9.45
2019-06-26T07:42:19.767Z,12.55
2019-06-26T07:43:27.972Z,11.20
2019-06-26T07:44:36.818Z,9.70
2019-06-26T07:45:44.733Z,17.98
2019-06-26T07:46:53.510Z,16.10
2019-06-26T07:48:01.668Z,14.47
2019-06-26T07:49:11.531Z,15.68
2019-06-26T07:50:20.014Z,13.62
2019-06-26T07:51:28.800Z,11.43
2019-06-26T07:52:37.578Z,11.22
2019-06-26T07:53:46.613Z,12.20
2019-06-26T07:54:54.850Z,15.93
2019-06-26T07:56:03.893Z,12.43
2019-06-26T07:57:12.097Z,12.68
2019-06-26T07:58:20.968Z,12.25
2019-06-26T07:59:29.099Z,14.60
2019-06-26T08:00:38.087Z,10.25
2019-06-26T08:01:46.030Z,10.63
2019-06-26T08:02:54.777Z,10.70
2019-06-26T08:04:03.255Z,15.93
2019-06-26T08:05:13.267Z,11.28
2019-06-26T08:06:23.016Z,15.10
2019-06-26T08:07:32.185Z,10.10
2019-06-26T08:08:40.470Z,8.80
2019-06-26T08:09:49.875Z,11.18
2019-06-26T08:10:58.070Z,10.63
2019-06-26T08:12:07.483Z,8.78
2019-06-26T08:13:15.700Z,9.08
2019-06-26T08:14:23.981Z,8.90
2019-06-26T08:15:32.214Z,7.97
2019-06-26T08:16:40.958Z,9.15
2019-06-26T08:17:59.772Z,9.10
2019-06-26T08:19:00.637Z,10.68
2019-06-26T08:20:08.941Z,10.10
2019-06-26T08:21:19.473Z,12.07
2019-06-26T08:22:27.612Z,8.10
2019-06-26T08:23:36.654Z,8.23
2019-06-26T08:24:45.035Z,10.65
2019-06-26T08:25:54.994Z,12.95
2019-06-26T08:27:03.003Z,9.75
2019-06-26T08:28:11.223Z,8.43
2019-06-26T08:29:19.383Z,10.03
2019-06-26T08:30:28.722Z,7.22
2019-06-26T08:31:36.909Z,11.53
2019-06-26T08:32:46.053Z,11.35
2019-06-26T08:33:54.044Z,9.75
2019-06-26T08:35:02.857Z,13.28
2019-06-26T08:36:10.884Z,8.70
2019-06-26T08:37:19.842Z,8.63
2019-06-26T08:38:27.977Z,10.23
2019-06-26T08:39:36.896Z,8.95
2019-06-26T08:40:44.934Z,11.57
2019-06-26T08:41:54.108Z,9.40
2019-06-26T08:43:02.054Z,9.93
2019-06-26T08:44:10.844Z,9.73
2019-06-26T08:45:18.994Z,9.15
2019-06-26T08:46:27.904Z,10.98
2019-06-26T08:47:36.028Z,10.93
2019-06-26T08:48:45.067Z,13.40
2019-06-26T08:49:53.933Z,10.70
2019-06-26T08:51:02.882Z,9.85
2019-06-26T08:52:11.553Z,12.50
2019-06-26T08:53:20.430Z,11.68
2019-06-26T08:54:28.595Z,10.38
2019-06-26T08:55:37.503Z,14.33
2019-06-26T08:56:45.657Z,11.73
2019-06-26T08:57:55.030Z,9.78
2019-06-26T08:59:02.998Z,8.40
2019-06-26T09:00:15.091Z,9.83
2019-06-26T09:01:23.556Z,10.38
2019-06-26T09:02:32.357Z,10.08
2019-06-26T09:03:42.077Z,11.65
2019-06-26T09:04:51.075Z,13.38
2019-06-26T09:05:59.631Z,8.45
2019-06-26T09:07:07.993Z,10.43
2019-06-26T09:08:16.170Z,10.72
2019-06-26T09:09:25.086Z,9.58
2019-06-26T09:10:33.119Z,8.68
2019-06-26T09:11:42.216Z,8.85
2019-06-26T09:12:50.430Z,11.45
2019-06-26T09:13:59.428Z,8.98
2019-06-26T09:15:08.400Z,9.90
2019-06-26T09:16:17.074Z,12.05
2019-06-26T09:17:25.092Z,8.75
2019-06-26T09:18:35.873Z,8.10
2019-06-26T09:19:43.824Z,10.40
2019-06-26T09:20:52.502Z,9.60
2019-06-26T09:22:00.547Z,11.75
2019-06-26T09:23:09.617Z,8.90
2019-06-26T09:24:18.036Z,10.68
2019-06-26T09:25:26.539Z,10.18
2019-06-26T09:26:34.570Z,8.95
2019-06-26T09:27:44.508Z,9.58
2019-06-26T09:28:52.656Z,11.78
2019-06-26T09:30:01.262Z,8.73
2019-06-26T09:31:09.121Z,10.23
2019-06-26T09:32:18.003Z,10.65
2019-06-26T09:33:26.211Z,11.93
2019-06-26T09:34:35.033Z,10.90
2019-06-26T09:35:43.315Z,12.53
2019-06-26T09:36:52.121Z,7.58
2019-06-26T09:38:00.180Z,9.85
2019-06-26T09:39:10.538Z,8.10
2019-06-26T09:40:19.402Z,10.25
2019-06-26T09:41:28.331Z,7.95
2019-06-26T09:42:36.366Z,8.68
2019-06-26T09:43:45.331Z,7.70
2019-06-26T09:44:53.523Z,9.75
2019-06-26T09:46:02.326Z,7.72
2019-06-26T09:47:10.537Z,8.05
2019-06-26T09:48:19.493Z,8.30
2019-06-26T09:49:27.342Z,8.43
2019-06-26T09:50:36.145Z,8.20
2019-06-26T09:51:44.050Z,8.30
2019-06-26T09:52:53.143Z,8.38
2019-06-26T09:54:01.000Z,7.35
2019-06-26T09:55:10.374Z,8.50
2019-06-26T09:56:18.449Z,6.53
2019-06-26T09:57:27.412Z,7.87
2019-06-26T09:58:35.316Z,8.25
2019-06-26T09:59:44.602Z,8.08
2019-06-26T10:00:52.869Z,10.90
2019-06-26T10:02:02.028Z,8.45
2019-06-26T10:03:10.291Z,8.70
2019-06-26T10:04:19.406Z,8.65
2019-06-26T10:05:27.436Z,6.95
2019-06-26T10:06:36.156Z,7.15
2019-06-26T10:07:44.264Z,5.75
2019-06-26T10:08:54.555Z,5.67
2019-06-26T10:10:03.411Z,6.72
2019-06-26T10:11:12.268Z,6.58
2019-06-26T10:12:20.777Z,6.83
2019-06-26T10:13:29.918Z,7.22
2019-06-26T10:14:47.460Z,8.13
2019-06-26T10:15:48.281Z,6.33
2019-06-26T10:16:56.784Z,6.97
2019-06-26T10:18:06.126Z,11.40
2019-06-26T10:20:32.186Z,6.42
2019-06-26T10:21:40.911Z,7.00
2019-06-26T10:22:49.202Z,9.68
2019-06-26T10:23:58.116Z,5.53
2019-06-26T10:25:11.087Z,6.67
2019-06-26T10:26:17.899Z,10.98
2019-06-26T10:27:25.783Z,6.72
2019-06-26T10:28:34.554Z,6.10
2019-06-26T10:29:42.639Z,8.93
2019-06-26T10:30:51.811Z,9.50
2019-06-26T10:32:00.495Z,7.28
2019-06-26T10:33:09.285Z,8.10
2019-06-26T10:34:17.377Z,5.10
2019-06-26T10:35:26.140Z,6.67
2019-06-26T10:36:33.946Z,4.92
2019-06-26T10:37:42.570Z,5.08
2019-06-26T10:38:50.790Z,6.22
2019-06-26T10:39:59.592Z,6.87
2019-06-26T10:41:07.569Z,4.95
2019-06-26T10:42:16.737Z,6.10
2019-06-26T10:43:24.922Z,6.58
2019-06-26T10:44:33.917Z,6.22
2019-06-26T10:45:41.924Z,6.10
2019-06-26T10:46:50.695Z,5.33
2019-06-26T10:47:58.689Z,6.22
2019-06-26T10:49:07.599Z,5.47
2019-06-26T10:50:16.377Z,6.40
2019-06-26T10:51:25.217Z,8.08
2019-06-26T10:52:33.260Z,9.53
2019-06-26T10:53:41.960Z,6.10
2019-06-26T10:54:49.923Z,8.13
2019-06-26T10:55:58.572Z,5.35
2019-06-26T10:57:06.472Z,6.15
2019-06-26T10:58:15.366Z,6.40
2019-06-26T10:59:23.655Z,7.70
2019-06-26T11:00:33.915Z,5.78
2019-06-26T11:01:41.945Z,4.55
2019-06-26T11:02:50.834Z,5.17
2019-06-26T11:03:59.154Z,5.78
2019-06-26T11:05:10.882Z,8.43
2019-06-26T11:06:18.720Z,4.85
2019-06-26T11:07:27.513Z,5.08
2019-06-26T11:08:35.397Z,4.58
2019-06-26T11:09:43.703Z,4.47
2019-06-26T11:10:51.695Z,4.33
2019-06-26T11:12:00.438Z,4.45
2019-06-26T11:13:08.695Z,7.42
2019-06-26T11:14:17.400Z,4.95
2019-06-26T11:15:26.347Z,4.72
2019-06-26T11:16:35.254Z,4.45
2019-06-26T11:17:43.354Z,4.37
2019-06-26T11:18:52.278Z,4.50
2019-06-26T11:20:00.221Z,4.65
2019-06-26T11:21:09.243Z,5.25
2019-06-26T11:22:17.176Z,5.83
2019-06-26T11:23:26.053Z,6.90
2019-06-26T11:24:34.093Z,4.92
2019-06-26T11:25:44.462Z,6.30
2019-06-26T11:26:52.933Z,8.43
2019-06-26T11:28:01.950Z,7.90
2019-06-26T11:29:10.390Z,5.62
2019-06-26T11:30:22.333Z,9.13
2019-06-26T11:31:30.454Z,5.85
2019-06-26T11:32:40.240Z,8.45
2019-06-26T11:33:48.191Z,7.90
2019-06-26T11:34:57.258Z,8.73
2019-06-26T11:36:05.685Z,5.65
2019-06-26T11:37:14.532Z,5.83
2019-06-26T11:38:22.439Z,8.95
2019-06-26T11:39:31.411Z,5.40
2019-06-26T11:40:39.625Z,5.50
2019-06-26T11:41:48.665Z,5.80
2019-06-26T11:42:56.912Z,5.95
2019-06-26T11:44:05.689Z,5.72
2019-06-26T11:45:15.050Z,5.92
2019-06-26T11:46:23.591Z,5.40
2019-06-26T11:47:31.736Z,5.00
2019-06-26T11:48:40.503Z,5.12
2019-06-26T11:49:59.498Z,5.92
2019-06-26T11:50:58.986Z,11.33
2019-06-26T11:52:07.142Z,5.17
2019-06-26T11:53:16.381Z,5.83
2019-06-26T11:54:24.361Z,7.22
2019-06-26T11:55:33.213Z,5.08
2019-06-26T11:56:41.485Z,5.83
2019-06-26T11:57:51.516Z,7.00
2019-06-26T11:58:59.715Z,4.55
2019-06-26T12:00:12.924Z,6.15
2019-06-26T12:01:21.408Z,5.78
2019-06-26T12:02:30.092Z,4.83
2019-06-26T12:03:38.168Z,4.20
2019-06-26T12:04:46.967Z,4.58
2019-06-26T12:06:10.528Z,4.60
2019-06-26T12:07:05.353Z,4.80
2019-06-26T12:08:13.463Z,6.12
2019-06-26T12:09:22.223Z,5.33
2019-06-26T12:10:30.219Z,6.28
2019-06-26T12:11:38.888Z,6.70
2019-06-26T12:12:47.090Z,9.83
2019-06-26T12:13:56.141Z,6.15
2019-06-26T12:15:04.220Z,5.62
2019-06-26T12:16:13.156Z,6.67
2019-06-26T12:17:21.137Z,10.98
2019-06-26T12:18:29.162Z,5.20
2019-06-26T12:19:37.200Z,5.72
2019-06-26T12:20:46.191Z,6.55
2019-06-26T12:21:54.373Z,5.17
2019-06-26T12:23:03.066Z,5.75
2019-06-26T12:24:11.365Z,5.67
2019-06-26T12:25:20.391Z,5.75
2019-06-26T12:26:28.315Z,5.80
2019-06-26T12:27:37.418Z,6.15
2019-06-26T12:28:45.531Z,5.12
2019-06-26T12:29:54.315Z,4.05
2019-06-26T12:31:02.605Z,5.65
2019-06-26T12:32:11.508Z,4.87
2019-06-26T12:33:19.575Z,5.92
2019-06-26T12:34:28.778Z,4.67
2019-06-26T12:35:36.678Z,4.60
2019-06-26T12:36:45.577Z,4.78
2019-06-26T12:37:55.328Z,4.97
2019-06-26T12:39:04.287Z,6.25
2019-06-26T12:40:14.281Z,7.12
2019-06-26T12:41:23.275Z,5.17
2019-06-26T12:42:31.576Z,6.67
2019-06-26T12:43:40.373Z,5.75
2019-06-26T12:44:48.395Z,5.70
2019-06-26T12:45:57.198Z,7.62
2019-06-26T12:47:05.110Z,7.03
2019-06-26T12:48:16.302Z,6.42
2019-06-26T12:49:23.817Z,5.45
2019-06-26T12:50:36.019Z,4.60
2019-06-26T12:51:42.470Z,5.20
2019-06-26T12:52:51.524Z,5.53
2019-06-26T12:53:59.615Z,6.78
2019-06-26T12:55:09.369Z,5.28
2019-06-26T12:56:17.654Z,7.60
2019-06-26T12:57:26.279Z,7.00
2019-06-26T12:58:34.487Z,9.00
2019-06-26T12:59:56.464Z,4.55
2019-06-26T13:00:53.623Z,12.15
2019-06-26T13:02:02.635Z,6.75
2019-06-26T13:03:10.841Z,9.83
2019-06-26T13:04:19.858Z,9.95
2019-06-26T13:05:28.045Z,8.43
2019-06-26T13:06:36.845Z,8.75
2019-06-26T13:07:45.131Z,5.03
2019-06-26T13:08:54.087Z,7.10
2019-06-26T13:10:02.254Z,5.00
2019-06-26T13:11:11.186Z,4.70
2019-06-26T13:12:19.620Z,5.53
2019-06-26T13:13:28.644Z,7.83
2019-06-26T13:14:36.677Z,6.72
2019-06-26T13:15:45.433Z,5.67
2019-06-26T13:16:53.597Z,5.15
2019-06-26T13:18:02.634Z,10.13
2019-06-26T13:19:11.324Z,6.95
2019-06-26T13:20:20.501Z,7.85
2019-06-26T13:21:29.059Z,9.23
2019-06-26T13:22:38.088Z,8.53
2019-06-26T13:23:45.897Z,7.20
2019-06-26T13:24:54.975Z,5.97
2019-06-26T13:26:03.221Z,5.90
2019-06-26T13:27:12.042Z,8.13
2019-06-26T13:28:20.454Z,5.05
2019-06-26T13:29:29.353Z,6.60
2019-06-26T13:30:41.100Z,5.45
2019-06-26T13:31:49.998Z,5.50
2019-06-26T13:32:58.727Z,6.50
2019-06-26T13:34:07.398Z,5.87
2019-06-26T13:35:15.313Z,6.47
2019-06-26T13:36:24.009Z,9.28
2019-06-26T13:37:31.835Z,6.10
2019-06-26T13:38:40.731Z,6.15
2019-06-26T13:39:48.647Z,8.43
2019-06-26T13:40:57.211Z,11.15
2019-06-26T13:42:05.299Z,6.78
2019-06-26T13:43:14.097Z,4.67
2019-06-26T13:44:21.986Z,5.08
2019-06-26T13:45:30.639Z,8.13
2019-06-26T13:46:39.122Z,5.40
2019-06-26T13:47:48.000Z,5.42
2019-06-26T13:48:55.894Z,8.45
2019-06-26T13:50:05.876Z,5.65
2019-06-26T13:51:14.051Z,8.73
2019-06-26T13:52:23.060Z,6.10
2019-06-26T13:53:31.178Z,6.40
2019-06-26T13:54:39.272Z,5.55
2019-06-26T13:55:47.384Z,7.47
2019-06-26T13:56:56.430Z,6.95
2019-06-26T13:58:04.852Z,6.25
2019-06-26T13:59:13.710Z,6.75
2019-06-26T14:00:24.064Z,6.87
2019-06-26T14:01:32.690Z,5.25
2019-06-26T14:02:40.578Z,5.80
2019-06-26T14:03:49.319Z,7.05
2019-06-26T14:04:57.343Z,5.05
2019-06-26T14:06:06.277Z,5.87
2019-06-26T14:07:14.296Z,6.33
2019-06-26T14:08:23.377Z,7.37
2019-06-26T14:09:31.271Z,7.17
2019-06-26T14:10:40.203Z,5.60
2019-06-26T14:11:48.250Z,7.90
2019-06-26T14:12:57.225Z,6.92
2019-06-26T14:14:05.506Z,8.78
2019-06-26T14:15:14.700Z,6.58
2019-06-26T14:16:22.852Z,5.08
2019-06-26T14:17:31.771Z,8.55
2019-06-26T14:18:40.069Z,6.42
2019-06-26T14:19:49.193Z,5.78
2019-06-26T14:20:57.271Z,8.60
2019-06-26T14:22:06.184Z,5.20
2019-06-26T14:23:14.139Z,6.50
2019-06-26T14:24:22.824Z,6.87
2019-06-26T14:25:30.892Z,6.55
2019-06-26T14:26:39.304Z,7.40
2019-06-26T14:27:47.359Z,5.55
2019-06-26T14:28:56.099Z,6.90
2019-06-26T14:30:05.915Z,6.17
2019-06-26T14:31:14.966Z,5.75
2019-06-26T14:32:23.043Z,5.25
2019-06-26T14:33:31.963Z,7.70
2019-06-26T14:34:40.270Z,6.37
2019-06-26T14:35:49.231Z,5.78
2019-06-26T14:36:58.864Z,5.83
2019-06-26T14:38:07.871Z,6.50
2019-06-26T14:39:16.066Z,9.38
2019-06-26T14:40:24.595Z,6.65
2019-06-26T14:41:32.927Z,6.85
2019-06-26T14:42:41.303Z,5.50
2019-06-26T14:43:49.517Z,5.30
2019-06-26T14:44:58.684Z,7.80
2019-06-26T14:46:06.701Z,5.97
2019-06-26T14:47:15.468Z,5.97
2019-06-26T14:48:23.675Z,5.85
2019-06-26T14:49:32.438Z,6.50
2019-06-26T14:50:40.509Z,10.45
2019-06-26T14:51:49.294Z,10.35
2019-06-26T14:52:57.282Z,11.80
2019-06-26T14:54:06.244Z,6.85
2019-06-26T14:55:14.933Z,6.50
2019-06-26T14:56:24.177Z,7.70
2019-06-26T14:57:32.407Z,6.20
2019-06-26T14:58:41.894Z,5.65
2019-06-26T14:59:50.445Z,8.43
2019-06-26T15:00:59.434Z,5.50
2019-06-26T15:02:07.805Z,9.63
2019-06-26T15:03:16.742Z,6.00
2019-06-26T15:04:24.931Z,6.28